createdAt,value
2017-12-19T09:37:41.165Z,84.90
2017-12-19T09:43:00.480Z,84.80
2017-12-19T10:05:22.591Z,84.70
2017-12-19T10:10:24.758Z,84.60
2017-12-19T10:15:27.495Z,84.00
2017-12-19T10:20:30.577Z,84.30
2017-12-19T10:25:43.957Z,85.00
2017-12-19T10:30:28.759Z,85.30
2017-12-19T10:35:31.366Z,86.10
2017-12-19T10:40:21.033Z,86.20
2017-12-19T10:56:04.304Z,87.00
2017-12-19T11:11:30.301Z,87.70
2017-12-19T11:16:35.202Z,87.90
2017-12-19T11:21:26.664Z,87.50
2017-12-19T11:26:15.022Z,87.70
2017-12-19T11:31:00.448Z,87.10
2017-12-19T11:35:45.818Z,86.80
2017-12-19T11:40:34.752Z,87.30
2017-12-19T11:45:19.915Z,86.90
2017-12-19T11:50:05.090Z,86.70
2017-12-19T11:54:50.915Z,86.80
2017-12-19T11:59:36.284Z,86.80
2017-12-19T12:04:23.486Z,86.60
2017-12-19T12:09:09.483Z,86.90
2017-12-19T12:13:54.546Z,87.00
2017-12-19T12:18:40.630Z,87.20
2017-12-19T12:23:27.648Z,87.50
2017-12-19T12:28:24.344Z,87.80
2017-12-19T12:33:14.712Z,88.30
2017-12-19T12:43:08.292Z,88.60
2017-12-19T12:47:52.761Z,88.80
2017-12-19T12:52:41.509Z,89.10
2017-12-19T12:57:36.512Z,88.40
2017-12-19T13:02:21.652Z,87.80
2017-12-19T13:07:07.225Z,88.30
2017-12-19T13:11:51.559Z,88.60
2017-12-19T13:16:45.367Z,88.90
2017-12-19T13:21:34.223Z,89.40
2017-12-19T13:26:18.669Z,89.00
2017-12-19T13:31:05.720Z,88.90
2017-12-19T13:35:50.831Z,88.70
2017-12-19T13:40:36.193Z,89.00
2017-12-19T13:45:21.450Z,89.10
2017-12-19T13:50:07.113Z,89.20
2017-12-19T13:54:51.649Z,90.00
2017-12-19T13:59:40.343Z,90.40
2017-12-19T14:04:25.822Z,90.80
2017-12-19T14:09:10.160Z,91.30
2017-12-19T14:13:54.468Z,91.90
2017-12-19T14:18:38.779Z,92.10
2017-12-19T14:23:23.115Z,92.10
2017-12-19T14:28:07.378Z,92.00
2017-12-19T14:32:51.655Z,92.10
2017-12-19T14:37:35.988Z,92.10
2017-12-19T14:42:20.396Z,92.20
2017-12-19T14:47:06.291Z,92.40
2017-12-19T14:51:51.697Z,92.40
2017-12-19T14:56:36.012Z,92.80
2017-12-19T15:01:20.377Z,93.00
2017-12-19T15:06:06.337Z,93.20
2017-12-19T15:10:52.321Z,93.60
2017-12-19T15:15:37.919Z,93.60
2017-12-19T15:20:26.265Z,93.60
2017-12-19T15:25:10.646Z,93.60
2017-12-19T15:29:56.512Z,93.60
2017-12-19T15:34:40.991Z,93.50
2017-12-19T15:39:25.518Z,93.60
2017-12-19T15:44:10.073Z,93.70
2017-12-19T15:48:54.443Z,93.70
2017-12-19T15:53:38.868Z,93.70
2017-12-19T15:58:23.214Z,93.90
2017-12-19T16:03:07.512Z,94.30
2017-12-19T16:07:51.824Z,94.00
2017-12-19T16:12:36.957Z,94.20
2017-12-19T16:17:21.562Z,94.20
2017-12-19T16:22:07.241Z,94.30
2017-12-19T16:26:51.616Z,94.20
2017-12-19T16:31:36.746Z,94.30
2017-12-19T16:36:21.459Z,94.30
2017-12-19T16:41:05.832Z,94.30
2017-12-19T16:45:50.526Z,94.30
2017-12-19T16:50:34.909Z,94.40
2017-12-19T16:55:19.293Z,94.40
2017-12-19T17:00:06.003Z,94.50
2017-12-19T17:04:50.510Z,94.50
2017-12-19T17:09:34.894Z,94.80
2017-12-19T17:14:20.096Z,94.50
2017-12-19T17:19:04.572Z,94.60
2017-12-19T17:23:48.963Z,94.50
2017-12-19T17:28:33.369Z,94.50
2017-12-19T17:33:17.797Z,94.50
2017-12-19T17:38:02.132Z,94.60
2017-12-19T17:42:46.551Z,94.60
2017-12-19T17:47:30.910Z,94.60
2017-12-19T17:52:15.319Z,94.60
2017-12-19T17:56:59.613Z,94.80
2017-12-19T18:01:43.932Z,94.50
2017-12-19T18:06:28.387Z,94.60
2017-12-19T18:11:12.899Z,94.70
2017-12-19T18:15:57.305Z,94.60
2017-12-19T18:20:41.689Z,94.60
2017-12-19T18:25:26.084Z,94.70
2017-12-19T18:30:10.444Z,94.70
2017-12-19T18:34:54.827Z,94.70
2017-12-19T18:39:39.219Z,94.70
2017-12-19T18:44:23.562Z,94.60
2017-12-19T18:49:08.008Z,94.60
2017-12-19T18:53:52.411Z,94.70
2017-12-19T18:58:37.574Z,94.80
2017-12-19T19:03:21.964Z,94.80
2017-12-19T19:08:06.402Z,94.90
2017-12-19T19:12:50.764Z,95.00
2017-12-19T19:17:35.548Z,95.20
2017-12-19T19:22:20.064Z,95.20
2017-12-19T19:27:05.985Z,95.20
2017-12-19T19:31:50.563Z,95.30
2017-12-19T19:36:34.914Z,95.10
2017-12-19T19:41:19.340Z,95.10
2017-12-19T19:46:03.755Z,95.10
2017-12-19T19:50:48.221Z,95.00
2017-12-19T19:55:32.689Z,95.00
2017-12-19T20:00:17.101Z,95.00
2017-12-19T20:05:01.601Z,95.20
2017-12-19T20:09:48.041Z,95.10
2017-12-19T20:14:34.111Z,95.10
2017-12-19T20:19:19.444Z,95.10
2017-12-19T20:24:04.863Z,95.20
2017-12-19T20:28:49.661Z,95.20
2017-12-19T20:33:34.246Z,95.10
2017-12-19T20:38:18.892Z,95.30
2017-12-19T20:43:03.544Z,95.30
2017-12-19T20:47:47.997Z,95.20
2017-12-19T20:52:32.491Z,95.40
2017-12-19T20:57:16.916Z,95.40
2017-12-19T21:02:01.375Z,95.40
2017-12-19T21:06:46.553Z,95.30
2017-12-19T21:11:31.005Z,95.30
2017-12-19T21:16:15.442Z,95.30
2017-12-19T21:21:00.669Z,95.20
2017-12-19T21:25:45.527Z,95.20
2017-12-19T21:30:29.998Z,95.10
2017-12-19T21:35:14.501Z,95.10
2017-12-19T21:39:59.064Z,95.30
2017-12-19T21:44:44.236Z,95.30
2017-12-19T21:49:28.767Z,95.30
2017-12-19T21:54:13.274Z,95.40
2017-12-19T21:58:57.804Z,95.30
2017-12-19T22:03:42.711Z,95.40
2017-12-19T22:08:27.155Z,95.50
2017-12-19T22:13:11.589Z,95.40
2017-12-19T22:17:56.000Z,95.40
2017-12-19T22:22:40.415Z,95.40
2017-12-19T22:27:24.864Z,95.30
2017-12-19T22:32:09.332Z,95.40
2017-12-19T22:36:54.207Z,95.50
2017-12-19T22:41:38.665Z,95.80
2017-12-19T22:46:23.125Z,95.70
2017-12-19T22:51:07.584Z,96.00
2017-12-19T22:55:52.022Z,95.90
2017-12-19T23:00:37.318Z,96.00
2017-12-19T23:05:21.857Z,96.00
2017-12-19T23:10:06.903Z,96.10
2017-12-19T23:14:51.328Z,96.00
2017-12-19T23:19:36.582Z,96.00
2017-12-19T23:24:21.080Z,96.00
2017-12-19T23:29:05.489Z,96.00
2017-12-19T23:33:49.907Z,96.00
2017-12-19T23:38:34.376Z,95.90
2017-12-19T23:43:18.780Z,95.90
2017-12-19T23:48:03.980Z,96.00
2017-12-19T23:52:48.385Z,95.90
2017-12-19T23:57:32.797Z,96.00
